Time;durP1;ratioP1;P1;durP2;ratioP2;P2;SDS_P1;SDS_P2;PMS_P1;PMS_P2;Temp;Humidity;BMP_temperature;BMP_pressure;BME280_temperature;BME280_humidity;BME280_pressure;Samples;Min_cycle;Max_cycle;Signal;HPM_P1;HPM_P2
2023/03/11 00:01:52;;;;;;;5.03;3.58;;;2.70;99.90;;;1.40;100.00;96254.81;4915115;29;20508;-79
2023/03/11 00:04:18;;;;;;;4.60;4.05;;;2.60;99.90;;;1.48;100.00;96265.72;4916594;29;20504;-79
2023/03/11 00:06:44;;;;;;;5.93;4.47;;;2.60;99.90;;;1.49;100.00;96259.50;4916511;29;20409;-79
2023/03/11 00:09:10;;;;;;;5.47;4.40;;;2.70;99.90;;;1.43;100.00;96257.75;4916546;29;20469;-79
2023/03/11 00:11:36;;;;;;;5.82;3.42;;;2.60;99.90;;;1.33;100.00;96259.31;4916520;29;20440;-79
2023/03/11 00:14:02;;;;;;;6.00;4.37;;;2.60;99.90;;;1.30;100.00;96267.56;4916460;29;20983;-79
2023/03/11 00:16:29;;;;;;;5.70;4.15;;;2.50;99.90;;;1.26;100.00;96262.00;4916296;29;20417;-79
2023/03/11 00:18:56;;;;;;;5.37;4.50;;;2.50;99.90;;;1.36;100.00;96261.47;4916166;29;20436;-79
2023/03/11 00:21:22;;;;;;;7.75;4.75;;;2.60;99.90;;;1.36;100.00;96262.25;4916313;29;20478;-79
2023/03/11 00:23:48;;;;;;;6.43;4.40;;;2.60;99.90;;;1.27;100.00;96275.84;4916243;29;20417;-79
2023/03/11 00:26:14;;;;;;;4.95;3.67;;;2.50;99.90;;;1.30;100.00;96276.19;4917360;29;20413;-79
2023/03/11 00:28:40;;;;;;;5.47;3.67;;;2.50;99.90;;;1.29;100.00;96281.59;4915923;29;20904;-79
2023/03/11 00:31:06;;;;;;;8.50;4.10;;;2.50;99.90;;;1.40;100.00;96280.88;4915987;29;20406;-78
2023/03/11 00:33:33;;;;;;;8.80;4.10;;;2.60;99.90;;;1.56;100.00;96256.78;4915906;29;20455;-79
2023/03/11 00:35:59;;;;;;;8.38;4.40;;;2.70;99.90;;;1.45;100.00;96262.75;4916138;29;20497;-79
2023/03/11 00:38:25;;;;;;;5.43;3.97;;;2.70;99.90;;;1.51;100.00;96262.66;4916272;29;20413;-79
2023/03/11 00:40:51;;;;;;;6.63;4.20;;;2.70;99.90;;;1.62;100.00;96279.38;4915946;29;20428;-79
2023/03/11 00:43:17;;;;;;;5.95;4.40;;;2.70;99.90;;;1.61;100.00;96274.38;4915574;29;20444;-79
2023/03/11 00:45:44;;;;;;;7.65;4.68;;;2.80;99.90;;;1.60;100.00;96288.44;4916063;29;20413;-79
2023/03/11 00:48:12;;;;;;;6.05;4.55;;;2.80;99.90;;;1.71;100.00;96280.66;4917365;29;20779;-79
2023/03/11 00:50:40;;;;;;;7.20;5.18;;;2.80;99.90;;;1.78;100.00;96281.38;4916563;29;20449;-79
2023/03/11 00:53:06;;;;;;;6.40;5.10;;;2.90;99.90;;;1.70;100.00;96276.47;4914139;29;20956;-79
2023/03/11 00:55:33;;;;;;;8.23;4.50;;;2.90;99.90;;;1.59;100.00;96289.44;4915801;29;20410;-78
2023/03/11 00:58:02;;;;;;;8.70;5.75;;;2.80;99.90;;;1.75;100.00;96287.00;4915817;29;20437;-79
2023/03/11 01:00:29;;;;;;;8.02;5.35;;;2.90;99.90;;;1.70;100.00;96299.94;4915431;29;20499;-78
2023/03/11 01:02:55;;;;;;;7.32;4.72;;;2.90;99.90;;;1.67;100.00;96316.00;4929969;29;20507;-80
2023/03/11 01:05:25;;;;;;;5.72;4.60;;;2.80;99.90;;;1.60;100.00;96296.25;4934626;29;20446;-79
2023/03/11 01:07:52;;;;;;;7.23;5.00;;;2.80;99.90;;;1.66;100.00;96319.63;4934520;29;20453;-79
2023/03/11 01:10:18;;;;;;;9.07;5.00;;;2.80;99.90;;;1.75;100.00;96309.69;4934089;29;20495;-79
2023/03/11 01:12:44;;;;;;;9.45;5.95;;;2.90;99.90;;;1.78;100.00;96312.66;4934200;29;20415;-79
2023/03/11 01:15:18;;;;;;;10.07;5.30;;;3.00;99.90;;;1.83;100.00;96309.38;4934453;29;20411;-79
2023/03/11 01:17:44;;;;;;;8.02;4.68;;;3.00;99.90;;;1.72;100.00;96318.78;4935547;29;20458;-79
2023/03/11 01:20:11;;;;;;;6.95;4.90;;;2.90;99.90;;;1.69;100.00;96319.22;4934283;29;20451;-78
2023/03/11 01:22:37;;;;;;;7.50;4.78;;;2.90;99.90;;;1.65;100.00;96317.28;4934073;29;21089;-79
2023/03/11 01:25:05;;;;;;;9.00;5.65;;;2.80;99.90;;;1.63;100.00;96317.50;4934341;29;20412;-79
2023/03/11 01:27:31;;;;;;;8.27;5.15;;;2.80;99.90;;;1.58;100.00;96319.94;4933927;29;20415;-79
2023/03/11 01:29:57;;;;;;;7.57;4.40;;;2.80;99.90;;;1.58;100.00;96317.34;4934074;29;21001;-79
2023/03/11 01:32:23;;;;;;;9.25;5.55;;;2.70;99.90;;;1.55;100.00;96330.81;4933752;29;20433;-79
2023/03/11 01:34:49;;;;;;;7.18;4.32;;;2.80;99.90;;;1.41;100.00;96317.16;4934126;29;20506;-79
2023/03/11 01:37:15;;;;;;;8.27;4.40;;;2.60;99.90;;;1.25;100.00;96330.78;4934159;29;20485;-79
2023/03/11 01:39:40;;;;;;;8.10;4.72;;;2.50;99.90;;;1.25;100.00;96327.38;4933276;29;20425;-79
2023/03/11 01:42:08;;;;;;;8.00;5.40;;;2.50;99.90;;;1.37;100.00;96344.69;4933781;29;20407;-78
2023/03/11 01:44:34;;;;;;;9.68;5.30;;;2.50;99.90;;;1.44;100.00;96355.81;4934148;29;20422;-78
2023/03/11 01:47:38;;;;;;;8.88;5.50;;;2.60;99.90;;;1.28;100.00;96330.34;4933995;29;20467;-78
2023/03/11 01:50:09;;;;;;;8.15;4.85;;;2.50;99.90;;;1.22;100.00;96325.19;4893637;29;20447;-80
2023/03/11 01:52:36;;;;;;;6.85;5.20;;;2.50;99.90;;;1.18;100.00;96317.03;4893112;29;20442;-80
2023/03/11 01:55:02;;;;;;;6.72;4.60;;;2.40;99.90;;;1.09;100.00;96313.91;4913918;29;20416;-79
2023/03/11 01:57:29;;;;;;;8.23;4.50;;;2.30;99.90;;;1.08;100.00;96299.28;4933634;29;20438;-80
2023/03/11 01:59:59;;;;;;;9.90;6.10;;;2.30;99.90;;;1.11;100.00;96322.31;4933366;29;20802;-78
2023/03/11 02:02:31;;;;;;;6.30;5.35;;;2.40;99.90;;;1.08;100.00;96329.75;4933255;29;20830;-79
2023/03/11 02:05:00;;;;;;;7.88;5.18;;;2.40;99.90;;;1.08;100.00;96308.91;4933505;29;20450;-79
2023/03/11 02:07:27;;;;;;;8.82;5.35;;;2.30;99.90;;;1.11;100.00;96322.31;4933548;29;20463;-80
2023/03/11 02:09:53;;;;;;;8.77;6.25;;;2.40;99.90;;;1.09;100.00;96324.34;4933349;29;20514;-79
2023/03/11 02:12:20;;;;;;;6.78;4.68;;;2.30;99.90;;;1.21;100.00;96324.41;4933223;29;20415;-79
2023/03/11 02:14:50;;;;;;;10.88;5.72;;;2.40;99.90;;;1.20;100.00;96348.91;4933428;29;20404;-79
2023/03/11 02:17:17;;;;;;;9.40;5.15;;;2.40;99.90;;;1.24;100.00;96346.63;4933349;29;20450;-80
2023/03/11 02:20:16;;;;;;;7.65;5.03;;;2.50;99.90;;;1.20;100.00;96345.50;4933112;29;20431;-79
2023/03/11 02:22:43;;;;;;;7.97;4.38;;;2.40;99.90;;;1.13;100.00;96337.72;4933143;29;20490;-79
2023/03/11 02:25:21;;;;;;;5.30;4.03;;;2.30;99.90;;;1.04;100.00;96342.44;4933230;29;20415;-79
2023/03/11 02:27:52;;;;;;;9.77;4.75;;;2.30;99.90;;;0.99;100.00;96338.88;4933248;29;20407;-79
2023/03/11 02:30:19;;;;;;;10.52;4.20;;;2.20;99.90;;;0.79;100.00;96333.88;4933165;29;20411;-78
2023/03/11 02:32:47;;;;;;;10.93;4.30;;;2.10;99.90;;;0.71;100.00;96319.31;4932915;29;20429;-80
2023/03/11 02:35:14;;;;;;;10.23;3.60;;;2.00;99.90;;;0.67;100.00;96340.81;4933117;29;20411;-79
2023/03/11 02:37:45;;;;;;;8.33;4.13;;;1.90;99.90;;;0.59;100.00;96343.69;4933165;29;20438;-79
2023/03/11 02:40:50;;;;;;;9.32;4.47;;;1.90;99.90;;;0.55;100.00;96347.72;4932914;29;20917;-79
2023/03/11 02:43:25;;;;;;;6.55;4.40;;;1.80;99.90;;;0.53;100.00;96347.91;4932664;28;20834;-79
2023/03/11 02:45:51;;;;;;;10.03;4.00;;;1.80;99.90;;;0.49;100.00;96348.56;4933038;29;20410;-79
2023/03/11 02:48:18;;;;;;;12.63;4.70;;;1.70;99.90;;;0.56;100.00;96355.31;4932991;29;20415;-79
2023/03/11 02:50:46;;;;;;;13.05;4.30;;;1.70;99.90;;;0.47;100.00;96361.78;4935355;29;20407;-79
2023/03/11 02:53:12;;;;;;;7.57;3.50;;;1.70;99.90;;;0.43;100.00;96371.03;4936766;29;20440;-79
2023/03/11 02:55:38;;;;;;;9.50;4.30;;;1.70;99.90;;;0.35;100.00;96350.47;4936787;29;20414;-79
2023/03/11 02:58:04;;;;;;;9.65;4.43;;;1.70;99.90;;;0.34;100.00;96369.69;4936930;29;20761;-79
2023/03/11 03:00:32;;;;;;;10.48;5.13;;;1.60;99.90;;;0.34;100.00;96343.69;4936692;29;20431;-80
2023/03/11 03:02:58;;;;;;;9.00;5.07;;;1.60;99.90;;;0.27;100.00;96363.75;4936576;29;20891;-79
2023/03/11 03:05:24;;;;;;;10.18;5.07;;;1.60;99.90;;;0.22;100.00;96371.41;4936793;29;20411;-79
2023/03/11 03:07:51;;;;;;;9.68;5.03;;;1.60;99.90;;;0.20;100.00;96373.41;4936572;29;20461;-79
2023/03/11 03:10:19;;;;;;;9.40;5.10;;;1.50;99.90;;;0.16;100.00;96378.22;4936259;29;20886;-79
2023/03/11 03:12:45;;;;;;;9.65;4.55;;;1.50;99.90;;;0.06;100.00;96364.91;4936281;29;20781;-79
2023/03/11 03:15:11;;;;;;;8.73;4.50;;;1.40;99.90;;;0.03;100.00;96382.72;4936572;29;20427;-79
2023/03/11 03:17:38;;;;;;;9.73;4.53;;;1.30;99.90;;;-0.06;100.00;96379.56;4936426;29;20423;-79
2023/03/11 03:20:11;;;;;;;9.60;4.00;;;1.30;99.90;;;-0.15;100.00;96378.22;4949872;23;20933;-76
2023/03/11 03:22:37;;;;;;;11.80;4.10;;;1.10;99.90;;;-0.19;100.00;96377.03;4935708;29;20423;-76
2023/03/11 03:25:04;;;;;;;12.27;4.32;;;1.10;99.90;;;-0.16;100.00;96372.22;4936362;29;20755;-76
2023/03/11 03:27:32;;;;;;;7.85;4.70;;;1.20;99.90;;;-0.18;100.00;96368.22;4936290;29;20407;-76
2023/03/11 03:29:57;;;;;;;12.55;4.80;;;1.20;99.90;;;-0.12;100.00;96363.00;4928169;29;20887;-76
2023/03/11 03:32:23;;;;;;;11.25;4.57;;;1.20;99.90;;;-0.13;100.00;96361.38;4916988;29;20447;-76
2023/03/11 03:34:57;;;;;;;11.47;4.23;;;1.20;99.90;;;-0.16;100.00;96369.63;4917319;29;20508;-76
2023/03/11 03:37:22;;;;;;;8.30;3.97;;;1.20;99.90;;;-0.27;100.00;96370.28;4917226;29;20420;-76
2023/03/11 03:39:48;;;;;;;7.97;4.35;;;1.00;99.90;;;-0.34;100.00;96372.09;4917030;29;20421;-76
2023/03/11 03:42:14;;;;;;;11.65;4.90;;;1.00;99.90;;;-0.32;100.00;96377.09;4916922;29;20823;-75
2023/03/11 03:44:40;;;;;;;13.80;4.97;;;1.00;99.90;;;-0.35;100.00;96391.31;4917162;29;20424;-76
2023/03/11 03:47:06;;;;;;;11.23;5.05;;;1.00;99.90;;;-0.38;100.00;96395.09;4918012;29;20417;-76
2023/03/11 03:49:32;;;;;;;13.02;4.93;;;1.00;99.90;;;-0.46;100.00;96395.38;4935867;29;20427;-76
2023/03/11 03:51:59;;;;;;;11.73;4.72;;;0.90;99.90;;;-0.48;100.00;96397.38;4935640;29;20495;-76
2023/03/11 03:54:25;;;;;;;10.43;4.50;;;0.90;99.90;;;-0.55;100.00;96401.78;4935936;29;20823;-76
2023/03/11 03:56:51;;;;;;;14.18;4.65;;;0.80;99.90;;;-0.51;100.00;96408.16;4936044;29;20419;-76
2023/03/11 03:59:17;;;;;;;9.50;4.20;;;0.80;99.90;;;-0.55;100.00;96417.38;4935663;29;20425;-75
2023/03/11 04:01:43;;;;;;;8.98;4.13;;;0.80;99.90;;;-0.59;100.00;96415.38;4934541;29;20427;-75
2023/03/11 04:04:08;;;;;;;8.05;4.50;;;0.80;99.90;;;-0.59;100.00;96415.38;4935677;29;20408;-76
2023/03/11 04:06:34;;;;;;;8.85;4.47;;;0.80;99.90;;;-0.62;100.00;96416.59;4935624;29;20415;-75
2023/03/11 04:09:02;;;;;;;8.38;4.65;;;0.80;99.90;;;-0.62;100.00;96423.59;4935405;29;20458;-75
2023/03/11 04:11:28;;;;;;;9.95;5.38;;;0.80;99.90;;;-0.64;100.00;96418.59;4935346;29;20403;-76
2023/03/11 04:13:54;;;;;;;11.60;5.17;;;0.70;99.90;;;-0.59;100.00;96416.19;4935526;29;20407;-76
2023/03/11 04:16:22;;;;;;;12.05;5.03;;;0.70;99.90;;;-0.61;100.00;96420.81;4935505;29;20471;-75
2023/03/11 04:18:48;;;;;;;11.38;5.32;;;0.80;99.90;;;-0.63;100.00;96422.00;4935603;29;20487;-76
2023/03/11 04:21:14;;;;;;;12.53;5.10;;;0.80;99.90;;;-0.63;100.00;96420.19;4935058;29;20561;-76
2023/03/11 04:23:40;;;;;;;13.93;5.32;;;0.70;99.90;;;-0.63;100.00;96432.41;4935120;29;20576;-76
2023/03/11 04:26:07;;;;;;;9.73;4.97;;;0.70;99.90;;;-0.64;100.00;96420.41;4935512;29;20437;-75
2023/03/11 04:28:33;;;;;;;9.63;4.97;;;0.70;99.90;;;-0.68;100.00;96425.22;4935343;29;20410;-76
2023/03/11 04:30:59;;;;;;;11.63;4.90;;;0.70;99.90;;;-0.72;100.00;96428.41;4935129;29;20454;-76
2023/03/11 04:33:25;;;;;;;10.40;4.33;;;0.60;99.90;;;-0.75;100.00;96427.00;4935012;29;20564;-75
2023/03/11 04:35:51;;;;;;;8.63;4.53;;;0.60;99.90;;;-0.74;100.00;96420.81;4935213;29;20411;-76
2023/03/11 04:38:17;;;;;;;8.43;5.20;;;0.60;99.90;;;-0.77;100.00;96415.25;4935056;29;20411;-75
2023/03/11 04:40:42;;;;;;;11.75;4.55;;;0.60;99.90;;;-0.80;100.00;96419.84;4934890;29;20932;-76
2023/03/11 04:43:10;;;;;;;13.75;4.90;;;0.60;99.90;;;-0.84;100.00;96429.06;4934840;29;20420;-75
2023/03/11 04:45:38;;;;;;;8.90;5.10;;;0.50;99.90;;;-0.88;100.00;96430.44;4934932;29;20416;-76
2023/03/11 04:48:04;;;;;;;12.00;5.10;;;0.50;99.90;;;-0.86;100.00;96425.06;4934882;29;20467;-75
2023/03/11 04:50:30;;;;;;;13.38;5.30;;;0.50;99.90;;;-0.91;100.00;96423.06;4934767;29;20415;-75
2023/03/11 04:52:56;;;;;;;10.80;5.10;;;0.50;99.90;;;-0.91;100.00;96427.47;4934406;29;20411;-75
2023/03/11 04:55:22;;;;;;;11.15;4.28;;;0.40;99.90;;;-0.95;100.00;96423.66;4934922;29;20490;-75
2023/03/11 04:57:48;;;;;;;9.82;4.70;;;0.40;99.90;;;-0.98;100.00;96424.88;4934733;29;20419;-76
2023/03/11 05:00:18;;;;;;;11.57;4.78;;;0.40;99.90;;;-0.98;100.00;96419.69;4933384;29;20427;-76
2023/03/11 05:02:44;;;;;;;12.70;4.60;;;0.40;99.90;;;-1.00;100.00;96431.25;4934407;29;20882;-76
2023/03/11 05:05:10;;;;;;;9.93;4.50;;;0.30;99.90;;;-1.04;100.00;96432.66;4934667;29;20443;-75
2023/03/11 05:07:37;;;;;;;14.03;4.63;;;0.30;99.90;;;-1.04;100.00;96441.25;4934451;29;20485;-75
2023/03/11 05:10:03;;;;;;;12.30;4.77;;;0.30;99.90;;;-1.04;100.00;96438.66;4934485;29;20546;-75
2023/03/11 05:12:29;;;;;;;10.50;4.38;;;0.30;99.90;;;-1.08;100.00;96442.66;4934326;29;21009;-75
2023/03/11 05:14:55;;;;;;;13.60;4.43;;;0.30;99.90;;;-1.08;100.00;96450.44;4934372;29;20518;-75
2023/03/11 05:17:23;;;;;;;13.05;4.28;;;0.30;99.90;;;-1.10;100.00;96444.66;4934460;29;20422;-75
2023/03/11 05:19:49;;;;;;;8.23;4.20;;;0.30;99.90;;;-1.15;100.00;96439.28;4932798;29;20504;-75
2023/03/11 05:22:15;;;;;;;13.63;4.55;;;0.20;99.90;;;-1.12;100.00;96449.25;4933894;29;20416;-75
2023/03/11 05:24:41;;;;;;;10.43;4.37;;;0.20;99.90;;;-1.11;100.00;96448.25;4934350;29;20458;-75
2023/03/11 05:27:07;;;;;;;7.63;3.80;;;0.20;99.90;;;-1.12;100.00;96444.03;4934238;29;20430;-76
2023/03/11 05:29:33;;;;;;;9.97;4.00;;;0.20;99.90;;;-1.07;100.00;96446.06;4934098;29;20485;-75
2023/03/11 05:31:59;;;;;;;6.35;4.00;;;0.30;99.90;;;-1.03;100.00;96452.44;4933822;29;20516;-76
2023/03/11 05:34:26;;;;;;;10.93;4.15;;;0.30;99.90;;;-0.97;100.00;96455.03;4934016;29;20415;-75
2023/03/11 05:36:52;;;;;;;12.73;4.55;;;0.40;99.90;;;-0.91;100.00;96458.63;4933983;29;20859;-75
2023/03/11 05:39:18;;;;;;;12.68;4.00;;;0.40;99.90;;;-0.84;100.00;96459.44;4933861;29;20919;-75
2023/03/11 05:41:44;;;;;;;9.68;3.90;;;0.50;99.90;;;-0.79;100.00;96465.59;4933606;29;20430;-77
2023/03/11 05:44:09;;;;;;;9.67;3.90;;;0.50;99.90;;;-0.72;100.00;96468.19;4933842;29;20885;-75
2023/03/11 05:46:35;;;;;;;9.38;3.88;;;0.60;99.90;;;-0.74;100.00;96465.00;4933814;29;20502;-76
2023/03/11 05:49:01;;;;;;;7.10;3.50;;;0.60;99.90;;;-0.73;100.00;96461.38;4933824;29;20407;-77
2023/03/11 05:51:29;;;;;;;11.68;4.05;;;0.60;99.90;;;-0.84;100.00;96459.44;4933458;29;20415;-74
2023/03/11 05:53:55;;;;;;;8.25;2.90;;;0.50;99.90;;;-0.97;100.00;96455.03;4933710;29;20422;-75
2023/03/11 05:56:22;;;;;;;9.00;3.45;;;0.40;99.90;;;-1.01;100.00;96461.63;4933782;29;20411;-76
2023/03/11 05:58:48;;;;;;;10.98;3.75;;;0.30;99.90;;;-0.98;100.00;96460.44;4933806;29;20442;-75
2023/03/11 06:01:17;;;;;;;11.43;3.90;;;0.40;99.90;;;-1.00;100.00;96467.63;4933402;29;20920;-75
2023/03/11 06:03:43;;;;;;;8.68;3.60;;;0.40;99.90;;;-1.02;100.00;96473.00;4933559;29;20927;-75
2023/03/11 06:06:12;;;;;;;9.60;3.88;;;0.30;99.90;;;-1.04;100.00;96471.59;4933532;29;20469;-75
2023/03/11 06:08:44;;;;;;;9.68;4.40;;;0.30;99.90;;;-0.99;100.00;96474.44;4933734;29;20443;-75
2023/03/11 06:11:10;;;;;;;13.07;3.85;;;0.30;99.90;;;-1.08;100.00;96480.81;4929359;29;20417;-75
2023/03/11 06:13:37;;;;;;;8.93;4.18;;;0.30;99.90;;;-1.11;100.00;96478.59;4916165;29;20437;-75
2023/03/11 06:16:03;;;;;;;14.07;3.80;;;0.20;99.90;;;-1.14;100.00;96474.63;4915380;29;20421;-76
2023/03/11 06:18:29;;;;;;;12.45;3.65;;;0.20;99.90;;;-1.11;100.00;96479.41;4913953;29;20856;-75
2023/03/11 06:20:58;;;;;;;12.43;4.07;;;0.30;99.90;;;-1.10;100.00;96475.81;4928366;29;20974;-75
2023/03/11 06:23:24;;;;;;;9.90;3.60;;;0.20;99.90;;;-1.14;100.00;96490.22;4912652;29;20938;-74
2023/03/11 06:25:56;;;;;;;12.20;3.90;;;0.20;99.90;;;-1.09;100.00;96481.81;4913388;29;20413;-75
2023/03/11 06:28:22;;;;;;;14.50;3.97;;;0.30;99.90;;;-1.07;100.00;96477.22;4913726;29;20413;-76
2023/03/11 06:30:48;;;;;;;14.10;3.90;;;0.20;99.90;;;-1.07;100.00;96482.41;4913439;29;20455;-76
2023/03/11 06:33:14;;;;;;;14.77;4.00;;;0.30;99.90;;;-1.06;100.00;96484.00;4912855;29;20524;-76
2023/03/11 06:35:40;;;;;;;11.02;3.70;;;0.30;99.90;;;-1.05;100.00;96486.38;4913731;29;20428;-76
2023/03/11 06:38:06;;;;;;;8.07;3.30;;;0.30;99.90;;;-0.90;100.00;96496.56;4914210;29;20951;-76
2023/03/11 06:40:33;;;;;;;14.95;3.97;;;0.40;99.90;;;-0.71;100.00;96506.16;4914097;29;20430;-74
2023/03/11 06:43:00;;;;;;;13.23;3.85;;;0.50;99.90;;;-0.60;100.00;96515.16;4913160;29;20444;-73
2023/03/11 06:45:26;;;;;;;9.38;3.20;;;0.70;99.90;;;-0.62;100.00;96515.34;4913289;29;20804;-75
2023/03/11 06:47:52;;;;;;;11.85;3.63;;;0.70;99.90;;;-0.40;100.00;96511.53;4912071;29;20488;-76
2023/03/11 06:50:18;;;;;;;12.17;4.10;;;0.80;99.90;;;-0.39;100.00;96527.91;4910655;29;20412;-75
2023/03/11 06:52:44;;;;;;;10.38;3.78;;;0.90;99.90;;;-0.38;100.00;96525.09;4913253;29;20476;-76
2023/03/11 06:55:10;;;;;;;12.30;3.63;;;0.90;99.90;;;-0.34;100.00;96532.50;4913587;29;20895;-77
2023/03/11 06:57:36;;;;;;;15.23;3.88;;;1.00;99.90;;;-0.29;100.00;96530.09;4912750;29;20981;-75
2023/03/11 07:00:06;;;;;;;12.17;3.93;;;1.00;99.90;;;-0.12;100.00;96526.84;4911444;29;20511;-74
2023/03/11 07:02:32;;;;;;;10.65;3.95;;;1.10;99.90;;;-0.12;100.00;96534.66;4912405;29;20409;-75
2023/03/11 07:04:58;;;;;;;12.57;3.70;;;1.20;99.90;;;-0.28;100.00;96540.28;4912726;29;20677;-77
2023/03/11 07:07:24;;;;;;;7.53;3.13;;;1.00;99.90;;;-0.14;100.00;96546.25;4909647;29;20464;-75
2023/03/11 07:09:53;;;;;;;9.35;3.28;;;1.10;99.90;;;-0.21;100.00;96548.88;4912441;29;20459;-76
2023/03/11 07:12:21;;;;;;;8.18;3.40;;;1.10;99.90;;;-0.19;100.00;96544.28;4910767;29;20651;-75
2023/03/11 07:14:47;;;;;;;11.50;3.33;;;1.10;99.90;;;-0.21;100.00;96542.88;4912473;29;20464;-76
2023/03/11 07:17:14;;;;;;;15.57;3.33;;;1.10;99.90;;;-0.19;100.00;96551.28;4912285;29;20417;-76
2023/03/11 07:19:40;;;;;;;12.00;3.60;;;1.10;99.90;;;-0.14;100.00;96559.25;4912246;29;20412;-76
2023/03/11 07:22:06;;;;;;;11.35;3.53;;;1.10;99.90;;;-0.05;100.00;96560.63;4912703;29;20954;-76
2023/03/11 07:24:32;;;;;;;8.10;3.05;;;1.20;99.90;;;0.00;100.00;96569.41;4913110;29;20935;-76
2023/03/11 07:26:58;;;;;;;7.53;3.27;;;1.30;99.90;;;0.07;100.00;96568.63;4912939;29;20449;-75
2023/03/11 07:29:24;;;;;;;11.10;3.30;;;1.30;99.90;;;0.09;100.00;96550.97;4918549;29;20847;-77
2023/03/11 07:31:50;;;;;;;15.63;3.80;;;1.40;99.90;;;-0.02;100.00;96565.44;4914787;29;20416;-76
2023/03/11 07:34:17;;;;;;;7.55;3.30;;;1.30;99.90;;;-0.03;100.00;96564.63;4913542;29;20426;-76
2023/03/11 07:36:43;;;;;;;11.55;3.55;;;1.30;99.90;;;-0.01;100.00;96567.03;4914559;29;20417;-75
2023/03/11 07:39:13;;;;;;;11.02;3.20;;;1.30;99.90;;;0.03;100.00;96572.63;4916260;29;20416;-76
2023/03/11 07:41:39;;;;;;;5.82;3.33;;;1.30;99.90;;;0.10;100.00;96578.59;4916042;29;20443;-76
2023/03/11 07:44:05;;;;;;;7.45;3.22;;;1.40;99.90;;;0.20;100.00;96587.59;4916738;29;20417;-76
2023/03/11 07:46:31;;;;;;;10.60;4.07;;;1.50;99.90;;;0.30;100.00;96582.72;4916569;29;20409;-77
2023/03/11 07:48:57;;;;;;;12.23;3.37;;;1.50;99.90;;;0.37;100.00;96578.31;4916350;29;20417;-76
2023/03/11 07:51:28;;;;;;;9.23;3.00;;;1.60;99.90;;;0.42;100.00;96575.09;4913357;29;20415;-76
2023/03/11 07:53:56;;;;;;;10.07;3.10;;;1.70;99.90;;;0.52;100.00;96574.66;4916350;29;20417;-75
2023/03/11 07:56:27;;;;;;;8.90;3.20;;;1.80;99.90;;;0.62;100.00;96594.03;4913907;29;20512;-76
2023/03/11 07:58:53;;;;;;;12.77;5.87;;;1.90;99.90;;;0.50;100.00;96592.28;4915926;29;20943;-76
2023/03/11 08:01:22;;;;;;;7.03;3.70;;;1.80;99.90;;;0.67;100.00;96602.03;4915866;29;20437;-76
2023/03/11 08:03:50;;;;;;;7.32;3.50;;;1.90;99.90;;;0.77;100.00;96602.38;4916152;29;20445;-75
2023/03/11 08:06:19;;;;;;;10.80;3.53;;;2.00;99.90;;;0.84;100.00;96606.72;4916118;29;20851;-75
2023/03/11 08:08:47;;;;;;;15.10;6.50;;;2.10;99.90;;;0.81;100.00;96602.75;4915753;29;20409;-73
2023/03/11 08:11:15;;;;;;;11.30;3.75;;;2.00;99.90;;;0.71;100.00;96602.41;4916325;29;20405;-75
2023/03/11 08:13:42;;;;;;;9.93;3.77;;;2.00;99.90;;;0.86;100.00;96587.28;4916353;29;20414;-77
2023/03/11 08:16:12;;;;;;;8.52;3.30;;;2.10;99.90;;;0.94;100.00;96602.69;4916509;29;20422;-72
2023/03/11 08:18:38;;;;;;;9.68;3.30;;;2.20;99.90;;;1.06;100.00;96602.78;4916164;29;20441;-75
2023/03/11 08:21:05;;;;;;;13.63;4.65;;;2.30;99.90;;;1.05;100.00;96601.22;4915919;29;20465;-74
2023/03/11 08:23:31;;;;;;;9.10;3.70;;;2.20;99.90;;;1.06;100.00;96606.19;4916084;29;20832;-73
2023/03/11 08:26:01;;;;;;;12.30;3.72;;;2.30;99.90;;;1.09;100.00;96611.00;4916388;29;20452;-73
2023/03/11 08:28:27;;;;;;;13.25;4.30;;;2.30;99.90;;;1.18;100.00;96616.78;4916310;29;20921;-75
2023/03/11 08:30:53;;;;;;;6.85;3.10;;;2.40;99.90;;;1.23;100.00;96614.31;4916166;29;20401;-73
2023/03/11 08:33:18;;;;;;;8.75;3.15;;;2.40;99.90;;;1.32;100.00;96617.47;4915705;29;20421;-73
2023/03/11 08:35:44;;;;;;;11.15;3.10;;;2.40;99.90;;;1.35;100.00;96617.88;4915742;29;20424;-73
2023/03/11 08:38:10;;;;;;;10.32;3.30;;;2.50;99.90;;;1.29;100.00;96621.28;4914927;29;20437;-75
2023/03/11 08:40:36;;;;;;;12.45;3.40;;;2.50;99.90;;;1.37;100.00;96628.84;4916065;29;20433;-75
2023/03/11 08:43:03;;;;;;;7.50;3.50;;;2.60;99.90;;;1.52;100.00;96624.13;4915704;29;20424;-73
2023/03/11 08:45:29;;;;;;;13.02;3.75;;;2.70;99.90;;;1.61;100.00;96623.88;4915940;29;20405;-73
2023/03/11 08:47:55;;;;;;;9.50;3.42;;;2.80;99.90;;;1.76;100.00;96621.75;4914888;29;20966;-73
2023/03/11 08:50:23;;;;;;;7.67;2.90;;;2.90;99.90;;;1.87;100.00;96640.13;4914666;29;20477;-75
2023/03/11 08:52:48;;;;;;;9.97;3.23;;;3.00;99.90;;;1.85;100.00;96643.94;4914946;29;20448;-73
2023/03/11 08:55:22;;;;;;;9.32;3.10;;;3.10;99.90;;;2.07;100.00;96633.91;4914975;29;20476;-82
2023/03/11 08:57:48;;;;;;;8.30;3.80;;;3.20;99.90;;;1.89;100.00;96637.28;4914748;29;20496;-76
2023/03/11 09:00:17;;;;;;;10.93;3.47;;;3.10;99.90;;;1.97;100.00;96633.59;4918902;29;20630;-75
2023/03/11 09:02:43;;;;;;;9.20;3.40;;;3.10;99.90;;;2.19;100.00;96637.41;4921003;29;20419;-77
2023/03/11 09:05:09;;;;;;;7.63;3.20;;;3.30;99.90;;;2.31;100.00;96639.09;4929476;29;20403;-73
2023/03/11 09:07:35;;;;;;;10.65;3.22;;;3.40;99.90;;;2.25;100.00;96639.16;4934185;29;20416;-73
2023/03/11 09:10:01;;;;;;;11.60;3.13;;;3.40;99.90;;;2.36;100.00;96642.84;4934224;29;20412;-73
2023/03/11 09:12:27;;;;;;;6.93;2.80;;;3.50;99.90;;;2.46;100.00;96643.16;4934043;29;20415;-74
2023/03/11 09:14:55;;;;;;;15.33;3.50;;;3.60;99.90;;;2.54;100.00;96642.88;4934036;29;20847;-74
2023/03/11 09:17:22;;;;;;;10.65;3.00;;;3.70;99.90;;;2.66;100.00;96644.50;4924736;29;20428;-74
2023/03/11 09:19:48;;;;;;;11.15;3.00;;;3.80;99.90;;;2.69;100.00;96651.94;4915092;29;20490;-72
2023/03/11 09:22:14;;;;;;;12.20;3.20;;;3.80;99.90;;;2.72;100.00;96661.13;4927401;23;20531;-83
2023/03/11 09:24:39;;;;;;;7.70;2.92;;;3.80;99.90;;;2.89;100.00;96651.69;4920974;29;20421;-83
2023/03/11 09:27:05;;;;;;;7.30;2.67;;;4.00;99.90;;;3.04;100.00;96646.06;4929923;29;20519;-82
2023/03/11 09:29:31;;;;;;;9.67;3.83;;;4.10;99.90;;;3.20;100.00;96668.19;4915314;29;20444;-83
2023/03/11 09:31:58;;;;;;;7.68;2.92;;;4.30;99.90;;;3.17;100.00;96668.59;4914906;29;20430;-83
2023/03/11 09:34:25;;;;;;;8.35;3.42;;;4.30;99.90;;;3.18;100.00;96665.78;4917861;29;20438;-82
2023/03/11 09:36:51;;;;;;;17.73;3.17;;;4.20;99.90;;;2.78;100.00;96669.94;4916800;29;20427;-83
2023/03/11 09:39:17;;;;;;;10.05;2.95;;;4.00;99.90;;;2.66;100.00;96651.56;4916711;29;20413;-83
2023/03/11 09:41:52;;;;;;;10.90;3.30;;;3.80;99.90;;;2.71;100.00;96649.88;4913200;29;20802;-83
2023/03/11 09:44:26;;;;;;;7.32;2.40;;;3.80;99.90;;;2.77;100.00;96648.22;4913680;29;20490;-83
2023/03/11 09:47:17;;;;;;;5.57;2.70;;;3.90;99.90;;;3.02;100.00;96654.13;4913848;29;20505;-83
2023/03/11 09:50:17;;;;;;;3.90;2.30;;;4.10;99.90;;;3.32;100.00;96655.94;4914659;29;20484;-83
2023/03/11 09:52:51;;;;;;;7.53;2.65;;;4.30;99.90;;;3.78;100.00;96656.03;4913291;29;20461;-83
2023/03/11 09:55:36;;;;;;;5.30;2.55;;;4.80;99.90;;;3.92;100.00;96667.09;4914926;29;21160;-84
2023/03/11 09:58:09;;;;;;;7.43;2.80;;;5.00;99.90;;;4.22;100.00;96664.38;4914232;29;21041;-81
2023/03/11 10:00:36;;;;;;;8.70;2.50;;;5.20;99.90;;;4.42;100.00;96653.56;4913909;29;20425;-83
2023/03/11 10:03:05;;;;;;;5.25;2.58;;;5.40;99.90;;;4.53;100.00;96657.97;4914042;29;20456;-83
2023/03/11 10:05:32;;;;;;;7.03;2.38;;;5.60;99.90;;;4.60;100.00;96656.03;4911818;29;20472;-83
2023/03/11 10:08:10;;;;;;;9.80;2.65;;;5.70;99.90;;;4.50;100.00;96651.38;4914327;29;20504;-83
2023/03/11 10:10:43;;;;;;;4.88;2.15;;;5.60;99.90;;;4.32;100.00;96648.88;4914339;29;20764;-83
2023/03/11 10:13:17;;;;;;;8.05;2.40;;;5.50;99.90;;;4.22;100.00;96648.66;4914503;29;20512;-82
2023/03/11 10:15:53;;;;;;;5.05;2.53;;;5.40;99.90;;;4.09;100.00;96652.31;4913622;29;20891;-81
2023/03/11 10:18:48;;;;;;;8.50;2.80;;;5.20;99.90;;;4.03;100.00;96655.03;4914579;29;20899;-82
2023/03/11 10:21:32;;;;;;;9.80;2.70;;;5.20;99.90;;;3.98;100.00;96654.94;4912727;29;20475;-82
2023/03/11 10:24:18;;;;;;;5.97;2.55;;;5.10;99.90;;;4.46;100.00;96652.06;4912768;29;20448;-82